Time;durP1;ratioP1;P1;durP2;ratioP2;P2;SDS_P1;SDS_P2;PMS_P1;PMS_P2;Temp;Humidity;BMP_temperature;BMP_pressure;BME280_temperature;BME280_humidity;BME280_pressure;Samples;Min_cycle;Max_cycle;Signal;HPM_P1;HPM_P2
2024/02/15 00:00:11;;;;;;;7.97;7.18;;;15.00;82.90;;;;;;5041475;28;20048;-88
2024/02/15 00:02:36;;;;;;;8.45;7.55;;;15.00;82.90;;;;;;5046292;28;20029;-93
2024/02/15 00:05:02;;;;;;;7.75;6.95;;;15.00;82.90;;;;;;5049764;28;20032;-88
2024/02/15 00:07:28;;;;;;;7.93;7.13;;;15.00;82.90;;;;;;5072722;28;20491;-88
2024/02/15 00:09:54;;;;;;;7.95;7.15;;;15.00;82.90;;;;;;5046605;28;20036;-87
2024/02/15 00:12:20;;;;;;;7.82;7.03;;;15.00;82.90;;;;;;5040760;28;20082;-82
2024/02/15 00:14:46;;;;;;;8.75;7.60;;;15.10;83.00;;;;;;5063297;28;20078;-88
2024/02/15 00:17:12;;;;;;;8.88;7.97;;;15.00;82.90;;;;;;5052079;28;20084;-88
2024/02/15 00:19:41;;;;;;;8.43;7.45;;;15.00;83.00;;;;;;5043966;28;20025;-88
2024/02/15 00:22:07;;;;;;;8.32;7.45;;;15.00;83.00;;;;;;5066781;28;20161;-87
2024/02/15 00:24:33;;;;;;;7.75;6.95;;;15.00;83.00;;;;;;5063452;28;20021;-91
2024/02/15 00:26:58;;;;;;;8.18;7.22;;;15.00;83.00;;;;;;5055696;28;20021;-93
2024/02/15 00:29:26;;;;;;;8.18;7.28;;;15.00;83.00;;;;;;5080058;28;20021;-87
2024/02/15 00:31:51;;;;;;;8.43;7.57;;;15.00;83.00;;;;;;5043659;28;20056;-82
2024/02/15 00:34:18;;;;;;;8.38;6.97;;;15.00;83.00;;;;;;5043149;28;20029;-91
2024/02/15 00:36:44;;;;;;;7.65;6.85;;;15.00;83.00;;;;;;5062516;28;20021;-92
2024/02/15 00:39:11;;;;;;;8.70;7.80;;;15.00;83.00;;;;;;5036991;28;20021;-88
2024/02/15 00:41:41;;;;;;;8.32;7.53;;;15.00;83.00;;;;;;5034656;28;20057;-87
2024/02/15 00:44:11;;;;;;;9.32;7.43;;;15.00;83.00;;;;;;5052152;28;20037;-82
2024/02/15 00:46:38;;;;;;;9.90;7.82;;;15.00;83.00;;;;;;5070495;28;20056;-87
2024/02/15 00:49:06;;;;;;;8.00;7.20;;;15.00;83.10;;;;;;5054048;28;20025;-87
2024/02/15 00:51:33;;;;;;;8.52;7.68;;;15.00;83.10;;;;;;5056465;28;20114;-92
2024/02/15 00:54:00;;;;;;;8.27;7.38;;;15.00;83.10;;;;;;5046551;28;20033;-88
2024/02/15 00:56:29;;;;;;;8.30;7.47;;;15.00;83.10;;;;;;5063558;28;20025;-92
2024/02/15 00:58:55;;;;;;;8.70;7.80;;;15.00;83.10;;;;;;5030184;28;20057;-82
2024/02/15 01:01:22;;;;;;;8.55;7.63;;;15.00;83.10;;;;;;5044353;28;20060;-81
2024/02/15 01:03:48;;;;;;;8.98;8.02;;;15.00;83.10;;;;;;5039514;28;20549;-82
2024/02/15 01:06:14;;;;;;;9.15;8.10;;;15.00;83.10;;;;;;5035731;28;20507;-81
2024/02/15 01:08:40;;;;;;;8.80;7.90;;;15.00;83.10;;;;;;5030697;28;20033;-82
2024/02/15 01:11:06;;;;;;;9.23;8.32;;;15.00;83.10;;;;;;5046761;28;20041;-87
2024/02/15 01:13:32;;;;;;;9.02;8.13;;;15.00;83.10;;;;;;5052101;28;20345;-88
2024/02/15 01:16:03;;;;;;;9.07;8.13;;;15.00;83.80;;;;;;5059423;28;20052;-88
2024/02/15 01:18:29;;;;;;;9.35;8.23;;;15.00;83.10;;;;;;5071567;28;20047;-87
2024/02/15 01:20:56;;;;;;;9.38;8.43;;;15.00;83.10;;;;;;5028783;28;20025;-92
2024/02/15 01:23:22;;;;;;;10.57;9.48;;;15.00;83.10;;;;;;5050062;28;20396;-82
2024/02/15 01:25:48;;;;;;;9.82;8.82;;;15.00;83.10;;;;;;5056045;28;20099;-87
2024/02/15 01:28:14;;;;;;;10.05;8.98;;;15.00;83.10;;;;;;5049820;28;20056;-88
2024/02/15 01:30:43;;;;;;;9.82;8.82;;;15.00;83.10;;;;;;5043571;28;20095;-87
2024/02/15 01:33:11;;;;;;;10.13;9.13;;;15.00;83.10;;;;;;5067788;28;20035;-86
2024/02/15 01:35:37;;;;;;;10.27;9.02;;;15.00;83.20;;;;;;5052598;28;20047;-82
2024/02/15 01:38:05;;;;;;;9.98;8.82;;;15.00;83.20;;;;;;5053821;28;20022;-92
2024/02/15 01:40:32;;;;;;;10.07;9.07;;;15.10;83.20;;;;;;5043882;28;20112;-81
2024/02/15 01:43:00;;;;;;;9.93;8.93;;;15.00;83.20;;;;;;5048881;28;20029;-88
2024/02/15 01:45:26;;;;;;;10.50;9.20;;;15.00;83.20;;;;;;5052037;28;20036;-88
2024/02/15 01:47:53;;;;;;;10.07;9.05;;;15.00;83.20;;;;;;5051625;28;20060;-88
2024/02/15 01:50:21;;;;;;;10.55;8.68;;;15.00;83.20;;;;;;5043068;28;20021;-93
2024/02/15 01:52:49;;;;;;;9.48;8.48;;;15.00;83.20;;;;;;5024669;28;20296;-87
2024/02/15 01:55:18;;;;;;;9.52;8.57;;;15.00;83.20;;;;;;5044701;28;20025;-82
2024/02/15 01:57:47;;;;;;;10.30;8.70;;;15.00;83.30;;;;;;5057899;28;20079;-87
2024/02/15 02:00:15;;;;;;;9.18;8.27;;;15.00;83.20;;;;;;5053728;28;20025;-87
2024/02/15 02:02:42;;;;;;;10.38;9.25;;;15.00;83.20;;;;;;5023698;28;20473;-87
2024/02/15 02:05:08;;;;;;;9.77;8.25;;;15.00;83.20;;;;;;5029354;28;20032;-82
2024/02/15 02:07:35;;;;;;;9.07;8.18;;;15.00;83.20;;;;;;5040050;28;21545;-92
2024/02/15 02:10:01;;;;;;;9.65;8.65;;;15.00;83.20;;;;;;5052769;28;20025;-92
2024/02/15 02:12:27;;;;;;;9.05;8.15;;;15.00;83.20;;;;;;5047199;28;20043;-81
2024/02/15 02:14:54;;;;;;;9.57;8.50;;;15.10;83.20;;;;;;5060625;28;20035;-93
2024/02/15 02:17:21;;;;;;;9.55;8.55;;;15.00;83.20;;;;;;5050054;28;20510;-87
2024/02/15 02:19:49;;;;;;;8.45;7.55;;;15.00;83.20;;;;;;5047774;28;20094;-86
2024/02/15 02:22:17;;;;;;;8.73;7.82;;;15.00;83.20;;;;;;5028620;28;20022;-87
2024/02/15 02:25:05;;;;;;;10.35;7.75;;;15.00;83.20;;;;;;5043784;28;20082;-86
2024/02/15 02:27:33;;;;;;;8.68;7.57;;;15.10;83.30;;;;;;5063318;28;20024;-87
2024/02/15 02:29:59;;;;;;;8.68;7.78;;;15.00;83.20;;;;;;5022307;28;20499;-88
2024/02/15 02:32:26;;;;;;;9.40;8.48;;;15.00;83.20;;;;;;5044532;28;20415;-91
2024/02/15 02:34:57;;;;;;;11.05;8.55;;;15.00;83.20;;;;;;5041220;28;20021;-89
2024/02/15 02:37:26;;;;;;;8.60;7.70;;;15.00;83.20;;;;;;5063078;28;20071;-86
2024/02/15 02:39:52;;;;;;;8.77;7.55;;;15.00;83.20;;;;;;5046103;28;20070;-86
2024/02/15 02:42:18;;;;;;;9.52;7.55;;;15.00;83.20;;;;;;5041769;28;20091;-88
2024/02/15 02:44:44;;;;;;;9.25;7.65;;;15.00;83.20;;;;;;5071136;28;20029;-93
2024/02/15 02:47:10;;;;;;;9.23;8.15;;;15.00;83.20;;;;;;5047326;28;20024;-88
2024/02/15 02:49:36;;;;;;;8.38;7.43;;;15.00;83.20;;;;;;5052732;28;20386;-82
2024/02/15 02:52:03;;;;;;;9.13;7.82;;;15.00;83.10;;;;;;5034294;28;20104;-92
2024/02/15 02:54:29;;;;;;;9.05;8.10;;;15.00;83.20;;;;;;5047785;28;20492;-92
2024/02/15 02:56:55;;;;;;;7.80;7.00;;;15.00;83.10;;;;;;5046605;28;20167;-82
2024/02/15 02:59:21;;;;;;;7.97;7.18;;;15.00;83.20;;;;;;5018809;28;20045;-86
2024/02/15 03:01:49;;;;;;;7.80;6.97;;;15.00;83.20;;;;;;5049056;28;20025;-86
2024/02/15 03:04:18;;;;;;;8.23;6.88;;;15.00;83.10;;;;;;5049262;28;20370;-87
2024/02/15 03:06:44;;;;;;;8.55;7.60;;;15.00;83.20;;;;;;5058919;28;20029;-89
2024/02/15 03:09:13;;;;;;;9.80;7.05;;;15.00;83.20;;;;;;5079928;28;20031;-86
2024/02/15 03:11:39;;;;;;;7.82;6.65;;;15.00;83.10;;;;;;5024028;28;20121;-92
2024/02/15 03:14:05;;;;;;;8.30;7.20;;;15.00;83.10;;;;;;5043373;28;20108;-82
2024/02/15 03:16:35;;;;;;;8.55;6.55;;;15.00;83.10;;;;;;5063624;28;20032;-81
2024/02/15 03:19:04;;;;;;;8.30;7.28;;;15.10;83.20;;;;;;5038474;28;20073;-87
2024/02/15 03:21:30;;;;;;;7.75;6.95;;;15.00;83.10;;;;;;5050830;28;20488;-91
2024/02/15 03:23:56;;;;;;;7.85;6.72;;;15.00;83.10;;;;;;5035702;28;20522;-92
2024/02/15 03:26:36;;;;;;;7.40;6.60;;;15.00;83.00;;;;;;5037493;28;20025;-82
2024/02/15 03:29:03;;;;;;;8.73;6.50;;;15.10;83.10;;;;;;5043006;28;20503;-86
2024/02/15 03:31:30;;;;;;;7.43;6.15;;;15.00;83.00;;;;;;5032964;28;20049;-82
2024/02/15 03:34:00;;;;;;;8.75;6.70;;;15.00;83.00;;;;;;5041663;28;20112;-89
2024/02/15 03:36:27;;;;;;;7.93;7.03;;;15.00;83.00;;;;;;5033793;28;20072;-93
2024/02/15 03:38:55;;;;;;;8.30;6.65;;;15.00;83.00;;;;;;5046634;28;20025;-86
2024/02/15 03:41:22;;;;;;;7.45;6.55;;;15.00;83.10;;;;;;5047736;28;20033;-82
2024/02/15 03:43:48;;;;;;;7.85;6.53;;;15.00;83.10;;;;;;5073947;28;20045;-92
2024/02/15 03:46:14;;;;;;;7.47;6.40;;;15.00;83.10;;;;;;5055754;28;20119;-82
2024/02/15 03:48:46;;;;;;;8.73;6.93;;;15.00;83.10;;;;;;5065836;28;20120;-86
2024/02/15 03:51:16;;;;;;;7.68;6.55;;;15.00;83.10;;;;;;5046359;28;20611;-88
2024/02/15 03:53:42;;;;;;;6.72;5.95;;;15.00;83.10;;;;;;5037343;28;20054;-91
2024/02/15 03:56:08;;;;;;;8.30;6.07;;;15.00;83.20;;;;;;5049521;28;20021;-88
2024/02/15 03:58:36;;;;;;;6.95;5.70;;;15.00;83.20;;;;;;5055085;28;20050;-86
2024/02/15 04:01:04;;;;;;;6.88;5.72;;;15.00;83.10;;;;;;5050866;28;20408;-86
2024/02/15 04:03:32;;;;;;;7.55;6.07;;;15.00;83.10;;;;;;5049643;28;20048;-92
2024/02/15 04:05:58;;;;;;;7.70;5.80;;;15.00;83.10;;;;;;5052157;28;20108;-84
2024/02/15 04:08:23;;;;;;;6.65;5.78;;;15.00;83.10;;;;;;5052988;28;20080;-85
2024/02/15 04:10:50;;;;;;;7.05;5.97;;;15.00;83.10;;;;;;5050503;28;20041;-86
2024/02/15 04:13:16;;;;;;;6.10;5.03;;;15.00;83.10;;;;;;5055685;28;20033;-87
2024/02/15 04:15:43;;;;;;;7.13;5.57;;;15.00;83.10;;;;;;5045462;28;20532;-86
2024/02/15 04:18:12;;;;;;;7.00;5.20;;;15.00;83.10;;;;;;5042151;28;20023;-87
2024/02/15 04:20:38;;;;;;;5.90;5.00;;;15.00;83.10;;;;;;5052219;28;20025;-81
2024/02/15 04:23:06;;;;;;;6.20;5.45;;;15.00;83.10;;;;;;5031966;28;20024;-87
2024/02/15 04:25:33;;;;;;;6.72;5.20;;;15.00;83.10;;;;;;5047298;28;20017;-91
2024/02/15 04:28:03;;;;;;;7.03;5.00;;;14.90;83.00;;;;;;5064198;28;20044;-81
2024/02/15 04:30:30;;;;;;;6.47;5.13;;;14.90;83.00;;;;;;5031764;28;20029;-87
2024/02/15 04:32:56;;;;;;;5.40;4.53;;;14.90;83.00;;;;;;5024566;28;20054;-81
2024/02/15 04:35:22;;;;;;;6.75;4.82;;;14.90;83.00;;;;;;5053352;28;20082;-87
2024/02/15 04:37:51;;;;;;;6.45;5.00;;;14.90;83.00;;;;;;5054698;28;20040;-85
2024/02/15 04:40:18;;;;;;;6.10;4.53;;;14.90;83.10;;;;;;5029638;28;20055;-85
2024/02/15 04:42:46;;;;;;;6.03;4.68;;;14.90;83.10;;;;;;5043750;28;20037;-91
2024/02/15 04:45:14;;;;;;;5.65;4.55;;;14.90;83.10;;;;;;5049524;28;20029;-85
2024/02/15 04:47:41;;;;;;;6.53;5.13;;;14.90;83.10;;;;;;5054122;28;20106;-85
2024/02/15 04:50:08;;;;;;;6.63;4.40;;;14.90;83.10;;;;;;5035415;28;20154;-90
2024/02/15 04:52:34;;;;;;;6.30;4.35;;;14.90;83.10;;;;;;5041876;28;20429;-91
2024/02/15 04:55:01;;;;;;;5.50;4.63;;;14.90;83.10;;;;;;5053201;28;20025;-92
2024/02/15 04:57:30;;;;;;;5.57;4.20;;;14.90;83.10;;;;;;5048860;28;20028;-88
2024/02/15 04:59:55;;;;;;;5.50;4.28;;;14.90;83.10;;;;;;5046633;28;20041;-87
2024/02/15 05:02:24;;;;;;;5.50;4.50;;;14.90;83.10;;;;;;5076046;28;20026;-81
2024/02/15 05:04:56;;;;;;;5.30;3.97;;;14.90;83.10;;;;;;5064064;28;20036;-87
2024/02/15 05:07:22;;;;;;;6.75;3.95;;;14.90;83.10;;;;;;5050243;28;20538;-85
2024/02/15 05:09:54;;;;;;;6.72;4.50;;;14.90;83.10;;;;;;5045216;28;20112;-81
2024/02/15 05:12:24;;;;;;;6.28;4.15;;;14.90;83.10;;;;;;5046829;28;20822;-90
2024/02/15 05:14:50;;;;;;;6.82;4.32;;;14.90;83.10;;;;;;5044646;28;20025;-91
2024/02/15 05:17:17;;;;;;;5.07;3.97;;;14.90;83.10;;;;;;5048267;28;20057;-87
2024/02/15 05:19:43;;;;;;;5.30;4.07;;;14.90;83.10;;;;;;5059517;28;20099;-90
2024/02/15 05:22:08;;;;;;;5.88;4.22;;;14.90;83.10;;;;;;5050260;28;20037;-91
2024/02/15 05:24:34;;;;;;;4.43;3.22;;;14.90;83.10;;;;;;5068596;28;20027;-87
2024/02/15 05:27:01;;;;;;;6.88;4.20;;;14.80;83.10;;;;;;5060588;28;20036;-80
2024/02/15 05:29:27;;;;;;;5.00;4.00;;;14.90;83.10;;;;;;5051216;28;20028;-80
2024/02/15 05:31:54;;;;;;;5.25;3.97;;;14.80;83.10;;;;;;5072049;28;20103;-87
2024/02/15 05:34:20;;;;;;;5.63;3.90;;;14.80;83.10;;;;;;5037282;28;20056;-90
2024/02/15 05:36:48;;;;;;;6.95;3.90;;;14.90;83.20;;;;;;5034288;28;20075;-85
2024/02/15 05:39:20;;;;;;;5.20;3.75;;;14.80;83.20;;;;;;5027863;28;20041;-90
2024/02/15 05:41:46;;;;;;;5.03;3.65;;;14.80;83.20;;;;;;5035399;28;20051;-84
2024/02/15 05:44:13;;;;;;;6.30;3.67;;;14.80;83.20;;;;;;5052150;28;20029;-83
2024/02/15 05:46:43;;;;;;;5.55;4.13;;;14.80;83.20;;;;;;5035222;28;20029;-87
2024/02/15 05:49:15;;;;;;;6.07;3.92;;;14.80;83.20;;;;;;5054861;28;20041;-83
2024/02/15 05:51:41;;;;;;;4.80;3.58;;;14.90;83.20;;;;;;5046121;28;20030;-91
2024/02/15 05:54:07;;;;;;;4.97;3.53;;;14.80;83.20;;;;;;5028669;28;20052;-90
2024/02/15 05:56:35;;;;;;;5.05;3.55;;;14.90;83.20;;;;;;5025297;28;20052;-81
2024/02/15 05:59:09;;;;;;;5.78;3.78;;;14.80;83.10;;;;;;5022079;28;20029;-89
2024/02/15 06:01:39;;;;;;;5.40;3.77;;;14.90;83.30;;;;;;5032650;28;20128;-89
2024/02/15 06:04:08;;;;;;;4.57;3.35;;;14.80;83.20;;;;;;5062273;28;20059;-89
2024/02/15 06:06:34;;;;;;;4.85;3.38;;;14.80;83.20;;;;;;5020274;28;20159;-84
2024/02/15 06:09:01;;;;;;;4.38;3.47;;;14.80;83.20;;;;;;5007467;28;20468;-85
2024/02/15 06:11:27;;;;;;;4.60;3.45;;;14.80;83.20;;;;;;5043151;28;20116;-82
2024/02/15 06:13:53;;;;;;;6.03;3.70;;;14.80;83.20;;;;;;5051196;28;20124;-85
2024/02/15 06:16:19;;;;;;;4.60;3.22;;;14.80;83.10;;;;;;5016603;28;20112;-92
2024/02/15 06:18:47;;;;;;;5.50;3.95;;;14.80;83.10;;;;;;5031765;28;20025;-80
2024/02/15 06:21:13;;;;;;;5.38;3.58;;;14.80;83.10;;;;;;5064720;28;20083;-90
2024/02/15 06:23:39;;;;;;;4.22;3.15;;;14.80;83.10;;;;;;5052435;28;20484;-80
2024/02/15 06:26:05;;;;;;;5.40;3.40;;;14.80;83.00;;;;;;5035863;28;20030;-90
2024/02/15 06:39:42;;;;;;;7.65;3.30;;;14.80;83.20;;;;;;5070611;28;20040;-91
2024/02/15 06:42:11;;;;;;;4.05;3.17;;;14.80;83.30;;;;;;5044630;28;20044;-79
2024/02/15 06:44:40;;;;;;;5.50;3.40;;;14.80;83.30;;;;;;5029822;28;20029;-90
2024/02/15 06:47:06;;;;;;;5.50;3.20;;;14.80;83.30;;;;;;5016695;28;20037;-80
2024/02/15 06:49:35;;;;;;;4.75;3.10;;;14.80;83.30;;;;;;5044993;28;20033;-80
2024/02/15 06:52:02;;;;;;;3.97;3.00;;;14.80;83.30;;;;;;5029405;28;20095;-87
2024/02/15 06:54:28;;;;;;;4.57;3.10;;;14.80;83.30;;;;;;5059545;28;20026;-90
2024/02/15 06:56:54;;;;;;;4.88;3.40;;;14.80;83.30;;;;;;5013903;28;20040;-89
2024/02/15 06:59:22;;;;;;;4.75;3.08;;;14.80;83.20;;;;;;5048600;28;20025;-88
2024/02/15 07:01:52;;;;;;;4.30;3.22;;;14.80;83.30;;;;;;5052761;28;20045;-79
2024/02/15 07:04:19;;;;;;;4.85;3.13;;;14.80;83.30;;;;;;5038651;28;20029;-80
2024/02/15 07:06:47;;;;;;;3.97;2.78;;;14.80;83.20;;;;;;5033164;28;20440;-80
2024/02/15 07:09:24;;;;;;;4.65;2.88;;;14.90;83.20;;;;;;5030777;28;20040;-84
2024/02/15 07:11:50;;;;;;;3.25;2.70;;;14.80;83.20;;;;;;5030494;28;20033;-88
2024/02/15 07:14:16;;;;;;;4.78;3.15;;;14.80;83.20;;;;;;5050102;28;20560;-88
2024/02/15 07:16:49;;;;;;;4.30;2.97;;;14.80;83.20;;;;;;5023659;28;20104;-90
2024/02/15 07:19:16;;;;;;;4.07;3.20;;;14.80;83.10;;;;;;5014817;28;20032;-91
2024/02/15 07:21:42;;;;;;;3.58;2.80;;;14.80;83.10;;;;;;5041446;28;20503;-80
2024/02/15 07:24:09;;;;;;;4.25;2.78;;;14.80;83.10;;;;;;5030822;28;20491;-80
2024/02/15 07:26:36;;;;;;;3.17;2.78;;;14.80;83.10;;;;;;5009909;28;20032;-90
2024/02/15 07:29:05;;;;;;;5.65;3.10;;;14.90;83.10;;;;;;5031088;28;20540;-88
2024/02/15 07:31:32;;;;;;;4.47;2.80;;;14.80;83.10;;;;;;5033829;28;20025;-79
2024/02/15 07:33:58;;;;;;;4.25;2.80;;;14.80;83.10;;;;;;5061217;28;20458;-89
2024/02/15 07:36:25;;;;;;;4.38;3.00;;;14.80;83.00;;;;;;5049533;28;20083;-80
2024/02/15 07:38:53;;;;;;;4.50;3.13;;;14.80;83.00;;;;;;5047754;28;20036;-80
2024/02/15 07:41:22;;;;;;;3.95;3.00;;;14.80;83.00;;;;;;5060536;28;20037;-80
2024/02/15 07:43:48;;;;;;;4.03;2.72;;;14.90;83.10;;;;;;5060811;28;20111;-83
2024/02/15 07:46:16;;;;;;;4.30;3.08;;;14.80;83.00;;;;;;5054287;28;20028;-87
2024/02/15 07:48:46;;;;;;;5.00;3.10;;;14.80;83.00;;;;;;5059844;28;20021;-89
2024/02/15 07:51:20;;;;;;;4.47;3.00;;;14.80;83.00;;;;;;5053177;28;20388;-89
2024/02/15 07:53:46;;;;;;;4.40;3.00;;;14.90;83.10;;;;;;5031265;28;20037;-89
2024/02/15 07:56:13;;;;;;;4.28;2.88;;;14.90;83.10;;;;;;5060378;28;20021;-89
2024/02/15 07:58:47;;;;;;;4.30;3.22;;;14.80;83.00;;;;;;5049312;28;20029;-90
2024/02/15 08:01:14;;;;;;;3.28;2.60;;;14.90;83.10;;;;;;5053541;28;20043;-83
2024/02/15 08:03:46;;;;;;;4.50;2.78;;;14.90;83.10;;;;;;5061849;28;20029;-89
2024/02/15 08:06:12;;;;;;;5.53;3.05;;;14.90;83.10;;;;;;5046836;28;20476;-83
2024/02/15 08:08:45;;;;;;;3.92;2.85;;;14.90;83.10;;;;;;5057188;28;20464;-87
2024/02/15 08:11:15;;;;;;;4.72;3.03;;;14.80;83.00;;;;;;5050304;28;20052;-79
2024/02/15 08:13:49;;;;;;;3.83;2.63;;;14.90;83.10;;;;;;5040801;28;20075;-89
2024/02/15 08:16:19;;;;;;;4.63;2.80;;;14.90;83.10;;;;;;5065186;28;20578;-87
2024/02/15 08:18:45;;;;;;;4.57;3.15;;;14.90;83.10;;;;;;5063829;28;20029;-88
2024/02/15 08:21:12;;;;;;;4.50;2.80;;;14.80;83.10;;;;;;5043098;28;20057;-87
2024/02/15 08:23:38;;;;;;;4.57;3.03;;;14.80;83.10;;;;;;5020894;28;20090;-87
2024/02/15 08:26:04;;;;;;;3.75;2.80;;;14.90;83.10;;;;;;5037434;28;20033;-79
2024/02/15 08:28:30;;;;;;;3.78;2.90;;;14.90;83.10;;;;;;5046557;28;20017;-83
2024/02/15 08:30:59;;;;;;;3.53;2.85;;;14.90;83.10;;;;;;5058896;28;20052;-83
2024/02/15 08:33:28;;;;;;;3.83;3.13;;;14.90;83.10;;;;;;5049375;28;20124;-87
2024/02/15 08:35:55;;;;;;;3.35;2.72;;;14.90;83.10;;;;;;5015466;28;20032;-87
2024/02/15 08:38:24;;;;;;;4.68;2.80;;;14.90;83.10;;;;;;5069023;28;20396;-86
2024/02/15 08:40:50;;;;;;;4.30;2.80;;;14.90;83.10;;;;;;5037796;28;20025;-87
2024/02/15 08:43:19;;;;;;;3.22;2.33;;;14.90;83.10;;;;;;5028694;28;20120;-88
2024/02/15 08:45:44;;;;;;;3.92;2.75;;;14.90;83.10;;;;;;5068418;28;20124;-87
2024/02/15 08:48:11;;;;;;;4.00;2.90;;;14.90;83.10;;;;;;5065658;28;20079;-79
2024/02/15 08:50:38;;;;;;;3.90;2.92;;;14.90;83.10;;;;;;5039389;28;20112;-79
2024/02/15 08:53:07;;;;;;;3.70;2.85;;;14.90;83.10;;;;;;5044674;28;20519;-79
2024/02/15 08:55:35;;;;;;;3.45;2.40;;;14.90;83.10;;;;;;5084992;28;20045;-87
2024/02/15 08:58:02;;;;;;;3.67;2.90;;;14.90;83.00;;;;;;5042707;28;20167;-87
2024/02/15 09:00:28;;;;;;;3.38;2.78;;;14.90;83.00;;;;;;5031913;28;20032;-79
2024/02/15 09:02:53;;;;;;;3.35;2.72;;;14.90;83.00;;;;;;5042615;28;20030;-87
2024/02/15 09:05:22;;;;;;;3.58;2.53;;;14.90;83.00;;;;;;5047657;28;20076;-87
2024/02/15 09:07:48;;;;;;;3.58;2.60;;;14.90;83.00;;;;;;5061908;28;20093;-88
2024/02/15 09:10:16;;;;;;;3.33;2.75;;;14.90;83.00;;;;;;5049124;28;20033;-85
2024/02/15 09:12:47;;;;;;;3.53;2.67;;;15.00;83.00;;;;;;5042807;28;20087;-88
2024/02/15 09:15:13;;;;;;;3.97;2.80;;;14.90;83.00;;;;;;5068630;28;20035;-83
2024/02/15 09:17:39;;;;;;;3.20;2.65;;;14.90;83.00;;;;;;5037842;28;20048;-84
2024/02/15 09:20:14;;;;;;;3.47;2.78;;;14.90;83.00;;;;;;5044850;28;20061;-79
2024/02/15 09:22:46;;;;;;;4.00;2.70;;;14.90;83.00;;;;;;5047991;28;20404;-88
2024/02/15 09:25:12;;;;;;;3.67;2.67;;;14.90;83.00;;;;;;5078859;28;20021;-83
2024/02/15 09:27:39;;;;;;;3.50;2.53;;;14.90;82.90;;;;;;5042646;28;20053;-80
2024/02/15 09:30:09;;;;;;;3.60;2.78;;;14.90;82.90;;;;;;5034598;28;20037;-88
2024/02/15 09:32:39;;;;;;;3.55;2.70;;;15.00;83.00;;;;;;5065173;28;20048;-87
2024/02/15 09:35:08;;;;;;;3.33;2.50;;;15.00;83.00;;;;;;5046283;28;20026;-80
2024/02/15 09:37:45;;;;;;;3.22;2.65;;;15.00;83.00;;;;;;4999352;28;20596;-88
2024/02/15 09:40:12;;;;;;;3.88;2.67;;;15.00;83.00;;;;;;5032724;28;20029;-86
2024/02/15 09:42:39;;;;;;;2.90;2.60;;;15.00;83.00;;;;;;5031100;28;20029;-87
2024/02/15 09:45:06;;;;;;;3.60;2.70;;;15.00;83.00;;;;;;5043463;28;20057;-87
2024/02/15 09:47:36;;;;;;;2.88;2.42;;;15.00;83.00;;;;;;5016452;28;20029;-87
2024/02/15 09:50:06;;;;;;;3.05;2.47;;;15.00;83.00;;;;;;5023256;28;20033;-82
2024/02/15 09:52:35;;;;;;;3.35;2.65;;;15.00;83.00;;;;;;5000878;28;20041;-82
2024/02/15 09:55:03;;;;;;;3.45;2.63;;;15.00;83.00;;;;;;5012734;28;20025;-88
2024/02/15 09:57:33;;;;;;;3.58;2.88;;;15.00;83.00;;;;;;5015026;28;20021;-79
2024/02/15 10:00:03;;;;;;;4.75;2.78;;;15.00;83.00;;;;;;5024035;28;20029;-83
2024/02/15 10:02:32;;;;;;;3.33;2.50;;;15.00;83.00;;;;;;5026365;28;20396;-83
2024/02/15 10:04:58;;;;;;;3.42;2.50;;;15.00;83.00;;;;;;5015414;28;20013;-80
2024/02/15 10:07:26;;;;;;;2.72;2.42;;;15.00;83.00;;;;;;5048945;28;20385;-83
2024/02/15 10:09:55;;;;;;;3.65;2.63;;;15.00;83.00;;;;;;5044355;28;20029;-83
2024/02/15 10:12:21;;;;;;;3.47;2.40;;;15.00;83.00;;;;;;5021943;28;20064;-88
2024/02/15 10:14:51;;;;;;;3.42;2.60;;;15.00;82.90;;;;;;5014755;28;20029;-89
2024/02/15 10:17:20;;;;;;;3.50;2.60;;;15.00;83.00;;;;;;5038835;28;20029;-82
2024/02/15 10:20:06;;;;;;;3.55;2.75;;;15.00;82.90;;;;;;5036030;28;20025;-88
2024/02/15 10:22:32;;;;;;;3.42;2.30;;;15.00;82.90;;;;;;5024846;28;20030;-88
2024/02/15 10:25:16;;;;;;;2.80;2.33;;;15.00;82.90;;;;;;5030725;28;20036;-80
2024/02/15 10:27:42;;;;;;;2.50;2.10;;;15.00;82.90;;;;;;5029086;28;20029;-90
2024/02/15 10:30:19;;;;;;;4.85;2.80;;;15.00;82.90;;;;;;5027628;28;20037;-79
2024/02/15 10:32:45;;;;;;;3.25;2.42;;;15.10;83.00;;;;;;5025999;28;20042;-80
2024/02/15 10:35:19;;;;;;;3.08;2.30;;;15.10;82.90;;;;;;5033145;28;20476;-79
2024/02/15 10:37:47;;;;;;;3.17;2.33;;;15.10;83.00;;;;;;5014625;28;20048;-82
2024/02/15 10:40:13;;;;;;;2.88;2.40;;;15.10;83.60;;;;;;5016918;28;20017;-88
2024/02/15 10:42:42;;;;;;;3.20;2.47;;;15.10;82.90;;;;;;5059989;28;20082;-89
2024/02/15 10:45:10;;;;;;;2.83;2.30;;;15.10;82.90;;;;;;5025156;28;20042;-80
2024/02/15 10:47:39;;;;;;;2.90;2.35;;;15.10;82.90;;;;;;5028875;28;20095;-80
2024/02/15 10:50:06;;;;;;;3.33;2.42;;;15.10;82.90;;;;;;5021598;28;20030;-88
2024/02/15 10:52:36;;;;;;;4.25;2.47;;;15.10;82.90;;;;;;5028649;28;20034;-88
2024/02/15 10:55:08;;;;;;;4.50;2.65;;;15.10;82.90;;;;;;5013773;28;20025;-84
2024/02/15 10:57:38;;;;;;;3.00;2.20;;;15.10;82.90;;;;;;5045440;28;20025;-88
2024/02/15 11:00:20;;;;;;;3.15;2.28;;;15.20;82.90;;;;;;5017153;28;20033;-80
2024/02/15 11:03:04;;;;;;;3.15;2.50;;;15.10;82.90;;;;;;5001753;28;20124;-84
2024/02/15 11:05:35;;;;;;;3.80;2.50;;;15.20;82.90;;;;;;5039854;28;20401;-80
2024/02/15 11:08:06;;;;;;;3.30;2.40;;;15.20;82.90;;;;;;5041535;28;20448;-89
2024/02/15 11:10:33;;;;;;;2.60;2.20;;;15.20;83.00;;;;;;5012107;28;20037;-89
2024/02/15 11:13:04;;;;;;;3.63;2.28;;;15.20;82.90;;;;;;5004049;28;20099;-84
2024/02/15 11:15:39;;;;;;;2.97;2.35;;;15.20;82.90;;;;;;5060753;28;20029;-88
2024/02/15 11:18:06;;;;;;;3.22;2.58;;;15.20;82.90;;;;;;5035910;28;20021;-90
2024/02/15 11:20:32;;;;;;;3.50;2.30;;;15.20;82.90;;;;;;5038471;28;20032;-90
2024/02/15 11:22:59;;;;;;;3.00;2.30;;;15.20;82.90;;;;;;5051390;28;20029;-80
2024/02/15 11:25:36;;;;;;;3.40;2.60;;;15.20;83.00;;;;;;5034695;28;20417;-80
2024/02/15 11:28:29;;;;;;;3.92;2.80;;;15.20;83.00;;;;;;5037227;28;20021;-92
2024/02/15 11:30:58;;;;;;;2.78;2.33;;;15.30;83.00;;;;;;5014008;28;20041;-84
2024/02/15 11:33:38;;;;;;;2.65;2.33;;;15.20;82.90;;;;;;5027910;28;20054;-82
2024/02/15 11:36:14;;;;;;;3.38;2.35;;;15.30;82.90;;;;;;5011768;28;20076;-79
2024/02/15 11:38:41;;;;;;;3.28;2.50;;;15.30;82.90;;;;;;5041300;28;20030;-84
2024/02/15 11:41:10;;;;;;;3.78;2.50;;;15.30;82.90;;;;;;5015123;28;20036;-79
2024/02/15 11:43:45;;;;;;;3.75;2.40;;;15.30;82.90;;;;;;5019449;28;20112;-89
2024/02/15 11:46:18;;;;;;;3.58;2.65;;;15.30;82.90;;;;;;5022100;28;20029;-79
2024/02/15 11:48:48;;;;;;;3.92;2.70;;;15.30;82.90;;;;;;5020943;28;20032;-79
2024/02/15 11:51:36;;;;;;;3.05;2.50;;;15.40;83.00;;;;;;5022991;28;20064;-87
2024/02/15 11:54:08;;;;;;;3.97;2.40;;;15.40;82.90;;;;;;5027338;28;20032;-79
2024/02/15 11:57:09;;;;;;;3.55;2.72;;;15.30;82.90;;;;;;5047824;28;20116;-83
2024/02/15 12:19:03;;;;;;;4.13;2.40;;;15.50;83.00;;;;;;5035866;28;20092;-90
2024/02/15 12:21:29;;;;;;;4.07;2.80;;;15.50;83.00;;;;;;5036880;28;20036;-93
2024/02/15 12:23:55;;;;;;;5.45;2.97;;;15.50;83.00;;;;;;5051150;28;20029;-92
2024/02/15 12:26:23;;;;;;;3.78;2.65;;;15.50;83.00;;;;;;5013903;28;20121;-86
2024/02/15 12:28:56;;;;;;;3.45;2.55;;;15.60;83.00;;;;;;5034738;28;20568;-92
2024/02/15 12:31:25;;;;;;;4.68;2.67;;;15.60;83.00;;;;;;5031897;28;20091;-91
2024/02/15 12:34:12;;;;;;;3.08;2.45;;;15.60;83.00;;;;;;5031262;28;20049;-81
2024/02/15 12:36:38;;;;;;;4.00;3.15;;;15.70;83.00;;;;;;5066262;28;20025;-91
2024/02/15 12:39:12;;;;;;;4.18;2.90;;;15.70;83.00;;;;;;5047080;28;20132;-95
2024/02/15 12:41:49;;;;;;;4.30;2.47;;;15.70;82.90;;;;;;5017521;28;20029;-89
2024/02/15 12:44:22;;;;;;;5.13;2.95;;;15.70;82.90;;;;;;5050823;28;20029;-83
2024/02/15 12:46:56;;;;;;;3.33;2.72;;;15.70;82.90;;;;;;5044688;28;20110;-82
2024/02/15 12:49:21;;;;;;;4.22;2.90;;;15.80;82.90;;;;;;5052016;28;20116;-95
2024/02/15 12:51:52;;;;;;;4.97;2.88;;;15.80;82.90;;;;;;5045370;28;20128;-82
2024/02/15 12:54:22;;;;;;;3.88;2.60;;;15.80;82.90;;;;;;5024259;28;20043;-96
2024/02/15 12:56:52;;;;;;;4.10;2.83;;;15.90;82.90;;;;;;5045677;28;20029;-89
2024/02/15 12:59:24;;;;;;;3.40;2.58;;;15.90;82.90;;;;;;5028199;28;20503;-88
2024/02/15 13:01:50;;;;;;;4.68;3.08;;;15.90;82.90;;;;;;5059633;28;20033;-87
2024/02/15 13:04:25;;;;;;;3.40;2.47;;;15.90;82.90;;;;;;5021659;28;20106;-88
2024/02/15 13:06:51;;;;;;;4.20;2.55;;;15.90;82.90;;;;;;5033839;28;20519;-96
2024/02/15 13:09:17;;;;;;;4.00;2.60;;;16.00;82.90;;;;;;5033064;28;20022;-93
2024/02/15 13:11:45;;;;;;;4.75;2.88;;;16.00;82.90;;;;;;5044995;28;20025;-87
2024/02/15 13:14:12;;;;;;;4.47;2.80;;;16.00;82.90;;;;;;5062816;28;20376;-82
2024/02/15 13:16:38;;;;;;;3.53;2.53;;;16.00;83.50;;;;;;5014726;28;20021;-95
2024/02/15 13:19:06;;;;;;;3.33;2.45;;;16.10;82.80;;;;;;5057184;28;20052;-82
2024/02/15 13:21:34;;;;;;;3.65;2.50;;;16.10;82.80;;;;;;5046176;28;20061;-96